sensor_id;sensor_type;location;lat;lon;timestamp;P1;durP1;ratioP1;P2;durP2;ratioP2
44536;SDS011;30245;51.966;6.292;2023-06-10T00:01:57;3.78;;;1.10;;
44536;SDS011;30245;51.966;6.292;2023-06-10T00:04:24;3.72;;;2.40;;
44536;SDS011;30245;51.966;6.292;2023-06-10T00:06:50;1.80;;;1.42;;
44536;SDS011;30245;51.966;6.292;2023-06-10T00:09:16;1.60;;;1.30;;
44536;SDS011;30245;51.966;6.292;2023-06-10T00:11:43;2.45;;;1.45;;
44536;SDS011;30245;51.966;6.292;2023-06-10T00:14:09;2.38;;;1.77;;
44536;SDS011;30245;51.966;6.292;2023-06-10T00:16:35;2.80;;;1.83;;
44536;SDS011;30245;51.966;6.292;2023-06-10T00:19:01;2.55;;;1.33;;
44536;SDS011;30245;51.966;6.292;2023-06-10T00:21:31;2.05;;;1.48;;
44536;SDS011;30245;51.966;6.292;2023-06-10T00:24:05;3.72;;;1.67;;
44536;SDS011;30245;51.966;6.292;2023-06-10T00:26:32;1.85;;;1.02;;
44536;SDS011;30245;51.966;6.292;2023-06-10T00:28:58;1.85;;;1.30;;
44536;SDS011;30245;51.966;6.292;2023-06-10T00:31:24;1.40;;;0.82;;
44536;SDS011;30245;51.966;6.292;2023-06-10T00:33:51;2.17;;;1.23;;
44536;SDS011;30245;51.966;6.292;2023-06-10T00:36:17;2.15;;;1.48;;
44536;SDS011;30245;51.966;6.292;2023-06-10T00:38:42;2.28;;;1.40;;
44536;SDS011;30245;51.966;6.292;2023-06-10T00:41:08;2.20;;;1.42;;
44536;SDS011;30245;51.966;6.292;2023-06-10T00:43:34;1.77;;;1.33;;
44536;SDS011;30245;51.966;6.292;2023-06-10T00:46:00;1.98;;;1.77;;
44536;SDS011;30245;51.966;6.292;2023-06-10T00:48:26;2.53;;;1.48;;
44536;SDS011;30245;51.966;6.292;2023-06-10T00:50:52;2.53;;;1.63;;
44536;SDS011;30245;51.966;6.292;2023-06-10T00:53:18;3.05;;;1.33;;
44536;SDS011;30245;51.966;6.292;2023-06-10T00:55:48;1.65;;;0.98;;
44536;SDS011;30245;51.966;6.292;2023-06-10T00:58:14;1.77;;;1.25;;
44536;SDS011;30245;51.966;6.292;2023-06-10T01:00:40;2.10;;;1.27;;
44536;SDS011;30245;51.966;6.292;2023-06-10T01:03:09;2.28;;;1.48;;
44536;SDS011;30245;51.966;6.292;2023-06-10T01:05:35;2.20;;;1.60;;
44536;SDS011;30245;51.966;6.292;2023-06-10T01:13:16;1.33;;;1.00;;
44536;SDS011;30245;51.966;6.292;2023-06-10T01:15:43;2.20;;;1.37;;
44536;SDS011;30245;51.966;6.292;2023-06-10T01:18:09;1.50;;;0.80;;
44536;SDS011;30245;51.966;6.292;2023-06-10T01:20:40;4.55;;;1.20;;
44536;SDS011;30245;51.966;6.292;2023-06-10T01:23:06;3.35;;;0.90;;
44536;SDS011;30245;51.966;6.292;2023-06-10T01:25:33;1.98;;;1.52;;
44536;SDS011;30245;51.966;6.292;2023-06-10T01:28:10;1.25;;;0.80;;
44536;SDS011;30245;51.966;6.292;2023-06-10T01:30:56;4.05;;;1.60;;
44536;SDS011;30245;51.966;6.292;2023-06-10T01:33:43;3.13;;;1.38;;
44536;SDS011;30245;51.966;6.292;2023-06-10T01:36:15;3.00;;;1.40;;
44536;SDS011;30245;51.966;6.292;2023-06-10T01:38:43;4.30;;;1.73;;
44536;SDS011;30245;51.966;6.292;2023-06-10T01:41:10;4.78;;;1.75;;
44536;SDS011;30245;51.966;6.292;2023-06-10T01:43:37;2.40;;;1.40;;
44536;SDS011;30245;51.966;6.292;2023-06-10T01:46:08;1.95;;;1.08;;
44536;SDS011;30245;51.966;6.292;2023-06-10T01:48:39;2.33;;;1.40;;
44536;SDS011;30245;51.966;6.292;2023-06-10T01:51:07;1.88;;;1.20;;
44536;SDS011;30245;51.966;6.292;2023-06-10T01:53:33;2.08;;;1.25;;
44536;SDS011;30245;51.966;6.292;2023-06-10T01:55:59;2.15;;;1.42;;
44536;SDS011;30245;51.966;6.292;2023-06-10T01:58:24;3.33;;;1.75;;
44536;SDS011;30245;51.966;6.292;2023-06-10T02:00:50;3.50;;;2.40;;
44536;SDS011;30245;51.966;6.292;2023-06-10T02:03:16;2.25;;;1.50;;
44536;SDS011;30245;51.966;6.292;2023-06-10T02:05:41;3.33;;;1.55;;
44536;SDS011;30245;51.966;6.292;2023-06-10T02:08:07;1.73;;;1.05;;
44536;SDS011;30245;51.966;6.292;2023-06-10T02:10:32;2.50;;;1.60;;
44536;SDS011;30245;51.966;6.292;2023-06-10T02:13:01;2.33;;;1.35;;
44536;SDS011;30245;51.966;6.292;2023-06-10T02:15:27;2.33;;;1.20;;
44536;SDS011;30245;51.966;6.292;2023-06-10T02:17:52;3.65;;;1.23;;
44536;SDS011;30245;51.966;6.292;2023-06-10T02:20:19;2.33;;;1.13;;
44536;SDS011;30245;51.966;6.292;2023-06-10T02:22:45;4.30;;;1.95;;
44536;SDS011;30245;51.966;6.292;2023-06-10T02:25:11;2.10;;;1.50;;
44536;SDS011;30245;51.966;6.292;2023-06-10T02:27:37;3.97;;;1.33;;
44536;SDS011;30245;51.966;6.292;2023-06-10T02:30:02;2.80;;;2.03;;
44536;SDS011;30245;51.966;6.292;2023-06-10T02:32:28;1.70;;;1.40;;
44536;SDS011;30245;51.966;6.292;2023-06-10T02:34:54;3.90;;;1.77;;
44536;SDS011;30245;51.966;6.292;2023-06-10T02:37:20;2.40;;;1.20;;
44536;SDS011;30245;51.966;6.292;2023-06-10T02:39:45;2.47;;;1.50;;
44536;SDS011;30245;51.966;6.292;2023-06-10T02:42:11;2.03;;;1.17;;
44536;SDS011;30245;51.966;6.292;2023-06-10T02:44:40;6.30;;;1.50;;
44536;SDS011;30245;51.966;6.292;2023-06-10T02:47:08;2.88;;;1.55;;
44536;SDS011;30245;51.966;6.292;2023-06-10T02:49:33;1.90;;;1.30;;
44536;SDS011;30245;51.966;6.292;2023-06-10T02:51:59;1.75;;;1.30;;
44536;SDS011;30245;51.966;6.292;2023-06-10T02:54:25;2.67;;;1.38;;
44536;SDS011;30245;51.966;6.292;2023-06-10T02:56:51;7.28;;;2.10;;
44536;SDS011;30245;51.966;6.292;2023-06-10T02:59:17;3.30;;;1.20;;
44536;SDS011;30245;51.966;6.292;2023-06-10T03:01:42;2.58;;;1.25;;
44536;SDS011;30245;51.966;6.292;2023-06-10T03:04:08;3.55;;;1.48;;
44536;SDS011;30245;51.966;6.292;2023-06-10T03:06:34;4.00;;;1.75;;
44536;SDS011;30245;51.966;6.292;2023-06-10T03:09:03;1.98;;;1.27;;
44536;SDS011;30245;51.966;6.292;2023-06-10T03:11:34;1.95;;;1.00;;
44536;SDS011;30245;51.966;6.292;2023-06-10T03:14:00;1.65;;;1.35;;
44536;SDS011;30245;51.966;6.292;2023-06-10T03:16:26;2.63;;;1.60;;
44536;SDS011;30245;51.966;6.292;2023-06-10T03:18:52;4.80;;;1.23;;
44536;SDS011;30245;51.966;6.292;2023-06-10T03:21:18;5.55;;;1.92;;
44536;SDS011;30245;51.966;6.292;2023-06-10T03:23:43;2.80;;;1.77;;
44536;SDS011;30245;51.966;6.292;2023-06-10T03:26:10;3.25;;;1.65;;
44536;SDS011;30245;51.966;6.292;2023-06-10T03:28:37;3.88;;;1.55;;
44536;SDS011;30245;51.966;6.292;2023-06-10T03:31:03;2.88;;;1.50;;
44536;SDS011;30245;51.966;6.292;2023-06-10T03:33:28;3.40;;;1.63;;
44536;SDS011;30245;51.966;6.292;2023-06-10T03:35:55;3.65;;;1.52;;
44536;SDS011;30245;51.966;6.292;2023-06-10T03:38:23;2.65;;;1.60;;
44536;SDS011;30245;51.966;6.292;2023-06-10T03:40:51;1.45;;;1.02;;
44536;SDS011;30245;51.966;6.292;2023-06-10T03:43:16;2.95;;;1.80;;
44536;SDS011;30245;51.966;6.292;2023-06-10T03:45:45;2.33;;;1.10;;
44536;SDS011;30245;51.966;6.292;2023-06-10T03:48:10;2.58;;;1.08;;
44536;SDS011;30245;51.966;6.292;2023-06-10T03:50:36;4.18;;;1.55;;
44536;SDS011;30245;51.966;6.292;2023-06-10T03:53:02;3.03;;;2.03;;
44536;SDS011;30245;51.966;6.292;2023-06-10T03:55:27;3.13;;;1.58;;
44536;SDS011;30245;51.966;6.292;2023-06-10T03:57:53;3.17;;;1.73;;
44536;SDS011;30245;51.966;6.292;2023-06-10T04:00:19;2.83;;;1.98;;
44536;SDS011;30245;51.966;6.292;2023-06-10T04:02:46;3.75;;;1.52;;
44536;SDS011;30245;51.966;6.292;2023-06-10T04:05:15;2.42;;;1.30;;
44536;SDS011;30245;51.966;6.292;2023-06-10T04:07:41;2.10;;;1.20;;
44536;SDS011;30245;51.966;6.292;2023-06-10T04:10:10;2.13;;;1.88;;
44536;SDS011;30245;51.966;6.292;2023-06-10T04:12:36;2.35;;;1.23;;
44536;SDS011;30245;51.966;6.292;2023-06-10T04:15:03;6.53;;;2.00;;
44536;SDS011;30245;51.966;6.292;2023-06-10T04:17:29;2.08;;;1.73;;
44536;SDS011;30245;51.966;6.292;2023-06-10T04:19:55;5.47;;;1.77;;
44536;SDS011;30245;51.966;6.292;2023-06-10T04:22:21;3.70;;;2.00;;
44536;SDS011;30245;51.966;6.292;2023-06-10T04:24:47;1.90;;;1.42;;
44536;SDS011;30245;51.966;6.292;2023-06-10T04:27:13;3.10;;;1.63;;
44536;SDS011;30245;51.966;6.292;2023-06-10T04:29:39;4.50;;;2.53;;
44536;SDS011;30245;51.966;6.292;2023-06-10T04:32:05;5.20;;;1.40;;
44536;SDS011;30245;51.966;6.292;2023-06-10T04:34:32;4.28;;;1.20;;
44536;SDS011;30245;51.966;6.292;2023-06-10T04:36:58;3.63;;;1.70;;
44536;SDS011;30245;51.966;6.292;2023-06-10T04:39:24;2.88;;;1.52;;
44536;SDS011;30245;51.966;6.292;2023-06-10T04:41:49;3.55;;;1.50;;
44536;SDS011;30245;51.966;6.292;2023-06-10T04:46:43;3.40;;;1.75;;
44536;SDS011;30245;51.966;6.292;2023-06-10T04:49:10;4.18;;;1.58;;
44536;SDS011;30245;51.966;6.292;2023-06-10T04:51:36;3.15;;;1.90;;
44536;SDS011;30245;51.966;6.292;2023-06-10T04:54:02;3.28;;;2.55;;
44536;SDS011;30245;51.966;6.292;2023-06-10T04:56:28;4.03;;;1.63;;
44536;SDS011;30245;51.966;6.292;2023-06-10T04:58:55;4.53;;;1.05;;
44536;SDS011;30245;51.966;6.292;2023-06-10T05:01:24;4.53;;;1.90;;
44536;SDS011;30245;51.966;6.292;2023-06-10T05:06:15;3.33;;;1.20;;
44536;SDS011;30245;51.966;6.292;2023-06-10T05:08:41;1.95;;;1.05;;
44536;SDS011;30245;51.966;6.292;2023-06-10T05:13:35;3.92;;;1.88;;
44536;SDS011;30245;51.966;6.292;2023-06-10T05:16:00;3.83;;;1.85;;
44536;SDS011;30245;51.966;6.292;2023-06-10T05:18:27;2.72;;;2.25;;
44536;SDS011;30245;51.966;6.292;2023-06-10T05:20:53;2.08;;;1.50;;
44536;SDS011;30245;51.966;6.292;2023-06-10T05:23:19;3.28;;;1.40;;
44536;SDS011;30245;51.966;6.292;2023-06-10T05:25:44;2.38;;;1.20;;
44536;SDS011;30245;51.966;6.292;2023-06-10T05:28:10;4.47;;;2.03;;
44536;SDS011;30245;51.966;6.292;2023-06-10T05:30:36;1.80;;;1.52;;
44536;SDS011;30245;51.966;6.292;2023-06-10T05:33:03;4.00;;;1.88;;
44536;SDS011;30245;51.966;6.292;2023-06-10T05:35:28;3.08;;;2.10;;
44536;SDS011;30245;51.966;6.292;2023-06-10T05:37:54;4.75;;;2.08;;
44536;SDS011;30245;51.966;6.292;2023-06-10T05:40:20;2.88;;;1.27;;
44536;SDS011;30245;51.966;6.292;2023-06-10T05:42:45;2.45;;;1.17;;
44536;SDS011;30245;51.966;6.292;2023-06-10T05:45:11;5.28;;;2.20;;
44536;SDS011;30245;51.966;6.292;2023-06-10T05:47:36;2.38;;;1.17;;
44536;SDS011;30245;51.966;6.292;2023-06-10T05:50:05;4.40;;;1.73;;
44536;SDS011;30245;51.966;6.292;2023-06-10T05:52:37;3.40;;;1.80;;
44536;SDS011;30245;51.966;6.292;2023-06-10T05:55:05;3.90;;;1.70;;
44536;SDS011;30245;51.966;6.292;2023-06-10T05:57:31;3.55;;;1.98;;
44536;SDS011;30245;51.966;6.292;2023-06-10T05:59:56;3.25;;;1.63;;
44536;SDS011;30245;51.966;6.292;2023-06-10T06:02:22;3.88;;;2.95;;
44536;SDS011;30245;51.966;6.292;2023-06-10T06:07:16;3.40;;;1.70;;
44536;SDS011;30245;51.966;6.292;2023-06-10T06:09:41;2.17;;;1.45;;
44536;SDS011;30245;51.966;6.292;2023-06-10T06:12:10;2.92;;;1.70;;
44536;SDS011;30245;51.966;6.292;2023-06-10T06:14:39;3.05;;;1.23;;
44536;SDS011;30245;51.966;6.292;2023-06-10T06:17:05;3.33;;;1.50;;
44536;SDS011;30245;51.966;6.292;2023-06-10T06:19:31;3.42;;;1.60;;
44536;SDS011;30245;51.966;6.292;2023-06-10T06:21:57;2.65;;;1.48;;
44536;SDS011;30245;51.966;6.292;2023-06-10T06:24:22;3.35;;;1.75;;
44536;SDS011;30245;51.966;6.292;2023-06-10T06:26:51;2.03;;;1.75;;
44536;SDS011;30245;51.966;6.292;2023-06-10T06:29:16;2.30;;;1.48;;
44536;SDS011;30245;51.966;6.292;2023-06-10T06:31:43;2.75;;;1.60;;
44536;SDS011;30245;51.966;6.292;2023-06-10T06:34:08;2.30;;;1.27;;
44536;SDS011;30245;51.966;6.292;2023-06-10T06:36:34;2.05;;;1.85;;
44536;SDS011;30245;51.966;6.292;2023-06-10T06:38:59;1.73;;;1.48;;
44536;SDS011;30245;51.966;6.292;2023-06-10T06:41:28;3.97;;;1.63;;
44536;SDS011;30245;51.966;6.292;2023-06-10T06:43:54;2.90;;;1.98;;
44536;SDS011;30245;51.966;6.292;2023-06-10T06:46:20;2.92;;;1.60;;
44536;SDS011;30245;51.966;6.292;2023-06-10T06:48:47;5.05;;;2.15;;
44536;SDS011;30245;51.966;6.292;2023-06-10T06:51:15;1.98;;;1.40;;
44536;SDS011;30245;51.966;6.292;2023-06-10T06:53:43;3.30;;;1.60;;
44536;SDS011;30245;51.966;6.292;2023-06-10T06:56:11;4.13;;;1.75;;
44536;SDS011;30245;51.966;6.292;2023-06-10T06:58:37;3.35;;;1.70;;
44536;SDS011;30245;51.966;6.292;2023-06-10T07:01:02;2.22;;;1.33;;
44536;SDS011;30245;51.966;6.292;2023-06-10T07:03:29;3.20;;;1.65;;
44536;SDS011;30245;51.966;6.292;2023-06-10T07:05:55;1.90;;;1.15;;
44536;SDS011;30245;51.966;6.292;2023-06-10T07:08:20;2.72;;;1.75;;
44536;SDS011;30245;51.966;6.292;2023-06-10T07:10:46;2.65;;;1.25;;
44536;SDS011;30245;51.966;6.292;2023-06-10T07:13:11;3.70;;;1.33;;
44536;SDS011;30245;51.966;6.292;2023-06-10T07:15:38;8.85;;;1.83;;
44536;SDS011;30245;51.966;6.292;2023-06-10T07:18:03;2.03;;;1.50;;
44536;SDS011;30245;51.966;6.292;2023-06-10T07:20:29;3.42;;;2.13;;
44536;SDS011;30245;51.966;6.292;2023-06-10T07:22:55;3.45;;;1.55;;
44536;SDS011;30245;51.966;6.292;2023-06-10T07:25:23;3.80;;;1.35;;
44536;SDS011;30245;51.966;6.292;2023-06-10T07:27:49;4.32;;;1.90;;
44536;SDS011;30245;51.966;6.292;2023-06-10T07:30:14;6.03;;;1.60;;
44536;SDS011;30245;51.966;6.292;2023-06-10T07:32:40;2.97;;;1.45;;
44536;SDS011;30245;51.966;6.292;2023-06-10T07:35:09;2.55;;;1.52;;
44536;SDS011;30245;51.966;6.292;2023-06-10T07:37:38;4.85;;;1.65;;
44536;SDS011;30245;51.966;6.292;2023-06-10T07:40:04;2.75;;;1.40;;
44536;SDS011;30245;51.966;6.292;2023-06-10T07:42:32;1.92;;;1.02;;
44536;SDS011;30245;51.966;6.292;2023-06-10T07:44:59;3.22;;;1.77;;
44536;SDS011;30245;51.966;6.292;2023-06-10T07:47:25;3.80;;;1.58;;
44536;SDS011;30245;51.966;6.292;2023-06-10T07:49:51;3.50;;;1.70;;
44536;SDS011;30245;51.966;6.292;2023-06-10T07:52:19;2.75;;;1.45;;
44536;SDS011;30245;51.966;6.292;2023-06-10T07:54:45;3.47;;;1.40;;
44536;SDS011;30245;51.966;6.292;2023-06-10T07:57:10;2.70;;;1.35;;
44536;SDS011;30245;51.966;6.292;2023-06-10T07:59:36;2.70;;;1.33;;
44536;SDS011;30245;51.966;6.292;2023-06-10T08:02:01;2.95;;;1.30;;
44536;SDS011;30245;51.966;6.292;2023-06-10T08:04:27;4.32;;;1.08;;
44536;SDS011;30245;51.966;6.292;2023-06-10T08:06:53;4.95;;;1.00;;
44536;SDS011;30245;51.966;6.292;2023-06-10T08:09:18;2.42;;;1.33;;
44536;SDS011;30245;51.966;6.292;2023-06-10T08:11:46;3.72;;;1.08;;
44536;SDS011;30245;51.966;6.292;2023-06-10T08:14:12;3.42;;;1.45;;
44536;SDS011;30245;51.966;6.292;2023-06-10T08:16:38;2.28;;;1.10;;
44536;SDS011;30245;51.966;6.292;2023-06-10T08:19:03;2.75;;;0.95;;
44536;SDS011;30245;51.966;6.292;2023-06-10T08:21:29;3.35;;;1.17;;
44536;SDS011;30245;51.966;6.292;2023-06-10T08:23:55;2.03;;;1.45;;
44536;SDS011;30245;51.966;6.292;2023-06-10T08:26:20;3.15;;;0.75;;
44536;SDS011;30245;51.966;6.292;2023-06-10T08:28:46;2.95;;;1.60;;
44536;SDS011;30245;51.966;6.292;2023-06-10T08:31:12;1.80;;;1.25;;
44536;SDS011;30245;51.966;6.292;2023-06-10T08:33:37;1.55;;;0.95;;
44536;SDS011;30245;51.966;6.292;2023-06-10T08:36:06;1.92;;;1.08;;
44536;SDS011;30245;51.966;6.292;2023-06-10T08:38:31;3.95;;;1.48;;
44536;SDS011;30245;51.966;6.292;2023-06-10T08:41:00;3.72;;;1.75;;
44536;SDS011;30245;51.966;6.292;2023-06-10T08:45:51;5.00;;;1.88;;
44536;SDS011;30245;51.966;6.292;2023-06-10T08:48:23;1.70;;;1.13;;
44536;SDS011;30245;51.966;6.292;2023-06-10T08:50:55;2.38;;;0.90;;
44536;SDS011;30245;51.966;6.292;2023-06-10T08:53:22;2.78;;;1.00;;
44536;SDS011;30245;51.966;6.292;2023-06-10T08:55:51;8.05;;;1.17;;
44536;SDS011;30245;51.966;6.292;2023-06-10T08:58:18;1.95;;;0.77;;
44536;SDS011;30245;51.966;6.292;2023-06-10T09:00:44;2.20;;;1.10;;
44536;SDS011;30245;51.966;6.292;2023-06-10T09:03:10;2.92;;;0.82;;
44536;SDS011;30245;51.966;6.292;2023-06-10T09:05:36;1.92;;;0.70;;
44536;SDS011;30245;51.966;6.292;2023-06-10T09:08:02;3.28;;;1.35;;
44536;SDS011;30245;51.966;6.292;2023-06-10T09:10:30;5.18;;;1.40;;
44536;SDS011;30245;51.966;6.292;2023-06-10T09:12:56;2.28;;;0.82;;
44536;SDS011;30245;51.966;6.292;2023-06-10T09:15:22;2.55;;;0.90;;
44536;SDS011;30245;51.966;6.292;2023-06-10T09:20:16;1.33;;;0.82;;
44536;SDS011;30245;51.966;6.292;2023-06-10T09:22:42;3.08;;;0.98;;
44536;SDS011;30245;51.966;6.292;2023-06-10T09:25:12;1.77;;;1.10;;
44536;SDS011;30245;51.966;6.292;2023-06-10T09:27:45;2.70;;;1.17;;
44536;SDS011;30245;51.966;6.292;2023-06-10T09:32:52;2.65;;;0.75;;
44536;SDS011;30245;51.966;6.292;2023-06-10T09:35:18;3.47;;;0.90;;
44536;SDS011;30245;51.966;6.292;2023-06-10T09:37:44;1.83;;;0.98;;
44536;SDS011;30245;51.966;6.292;2023-06-10T09:40:09;2.72;;;0.88;;
44536;SDS011;30245;51.966;6.292;2023-06-10T09:42:37;1.73;;;0.83;;
44536;SDS011;30245;51.966;6.292;2023-06-10T09:45:04;1.85;;;1.00;;
44536;SDS011;30245;51.966;6.292;2023-06-10T09:47:31;1.52;;;0.70;;
44536;SDS011;30245;51.966;6.292;2023-06-10T09:49:56;4.05;;;0.98;;
44536;SDS011;30245;51.966;6.292;2023-06-10T09:52:25;1.55;;;0.80;;
44536;SDS011;30245;51.966;6.292;2023-06-10T09:55:02;1.67;;;0.95;;
44536;SDS011;30245;51.966;6.292;2023-06-10T09:57:31;2.72;;;0.70;;
44536;SDS011;30245;51.966;6.292;2023-06-10T09:59:58;1.83;;;0.93;;
44536;SDS011;30245;51.966;6.292;2023-06-10T10:02:24;1.85;;;0.65;;
44536;SDS011;30245;51.966;6.292;2023-06-10T10:04:49;2.15;;;0.90;;
44536;SDS011;30245;51.966;6.292;2023-06-10T10:07:15;1.73;;;0.80;;
44536;SDS011;30245;51.966;6.292;2023-06-10T10:09:41;0.98;;;0.43;;
44536;SDS011;30245;51.966;6.292;2023-06-10T10:12:11;1.27;;;0.55;;
44536;SDS011;30245;51.966;6.292;2023-06-10T10:14:38;1.38;;;1.02;;
44536;SDS011;30245;51.966;6.292;2023-06-10T10:17:14;1.20;;;0.63;;
44536;SDS011;30245;51.966;6.292;2023-06-10T10:19:46;1.17;;;0.75;;
44536;SDS011;30245;51.966;6.292;2023-06-10T10:22:18;1.23;;;1.00;;
44536;SDS011;30245;51.966;6.292;2023-06-10T10:24:50;1.77;;;0.70;;
44536;SDS011;30245;51.966;6.292;2023-06-10T10:27:20;4.18;;;0.60;;
44536;SDS011;30245;51.966;6.292;2023-06-10T10:29:52;1.25;;;0.90;;
44536;SDS011;30245;51.966;6.292;2023-06-10T10:32:18;1.90;;;0.85;;
44536;SDS011;30245;51.966;6.292;2023-06-10T10:37:22;2.03;;;0.82;;
44536;SDS011;30245;51.966;6.292;2023-06-10T10:39:49;2.05;;;0.88;;
44536;SDS011;30245;51.966;6.292;2023-06-10T10:42:15;1.50;;;1.08;;
44536;SDS011;30245;51.966;6.292;2023-06-10T10:44:42;1.63;;;0.80;;
44536;SDS011;30245;51.966;6.292;2023-06-10T10:47:08;1.33;;;1.00;;
44536;SDS011;30245;51.966;6.292;2023-06-10T10:49:35;12.47;;;2.30;;
44536;SDS011;30245;51.966;6.292;2023-06-10T10:52:02;1.27;;;0.70;;
44536;SDS011;30245;51.966;6.292;2023-06-10T10:54:34;3.97;;;0.65;;
44536;SDS011;30245;51.966;6.292;2023-06-10T10:57:10;1.98;;;1.00;;
44536;SDS011;30245;51.966;6.292;2023-06-10T11:00:09;2.17;;;0.93;;
44536;SDS011;30245;51.966;6.292;2023-06-10T11:05:13;1.98;;;1.35;;
44536;SDS011;30245;51.966;6.292;2023-06-10T11:07:39;1.67;;;0.68;;
44536;SDS011;30245;51.966;6.292;2023-06-10T11:10:13;1.88;;;0.90;;
44536;SDS011;30245;51.966;6.292;2023-06-10T11:12:40;1.08;;;0.60;;
44536;SDS011;30245;51.966;6.292;2023-06-10T11:15:12;3.35;;;0.88;;
44536;SDS011;30245;51.966;6.292;2023-06-10T11:33:52;2.22;;;1.10;;
44536;SDS011;30245;51.966;6.292;2023-06-10T11:36:18;1.60;;;0.68;;
44536;SDS011;30245;51.966;6.292;2023-06-10T11:38:44;1.33;;;0.65;;
44536;SDS011;30245;51.966;6.292;2023-06-10T11:41:14;2.92;;;1.00;;
44536;SDS011;30245;51.966;6.292;2023-06-10T11:43:46;4.38;;;0.95;;
44536;SDS011;30245;51.966;6.292;2023-06-10T11:46:15;4.53;;;0.75;;
44536;SDS011;30245;51.966;6.292;2023-06-10T11:48:51;2.03;;;0.93;;
44536;SDS011;30245;51.966;6.292;2023-06-10T11:51:18;1.50;;;0.70;;
44536;SDS011;30245;51.966;6.292;2023-06-10T11:53:44;2.25;;;0.93;;
44536;SDS011;30245;51.966;6.292;2023-06-10T11:56:11;1.00;;;0.50;;
44536;SDS011;30245;51.966;6.292;2023-06-10T11:58:41;1.10;;;0.77;;
44536;SDS011;30245;51.966;6.292;2023-06-10T12:01:10;3.05;;;0.70;;
44536;SDS011;30245;51.966;6.292;2023-06-10T12:03:36;0.77;;;0.57;;
44536;SDS011;30245;51.966;6.292;2023-06-10T12:06:03;1.27;;;0.68;;
44536;SDS011;30245;51.966;6.292;2023-06-10T12:08:30;1.48;;;0.70;;
44536;SDS011;30245;51.966;6.292;2023-06-10T12:10:57;2.80;;;0.77;;
44536;SDS011;30245;51.966;6.292;2023-06-10T12:13:23;1.15;;;0.57;;
44536;SDS011;30245;51.966;6.292;2023-06-10T12:15:51;1.58;;;0.95;;
44536;SDS011;30245;51.966;6.292;2023-06-10T12:18:17;1.67;;;0.57;;
44536;SDS011;30245;51.966;6.292;2023-06-10T12:20:44;8.05;;;1.48;;
44536;SDS011;30245;51.966;6.292;2023-06-10T12:23:10;1.65;;;0.75;;
44536;SDS011;30245;51.966;6.292;2023-06-10T12:25:37;1.58;;;0.75;;
44536;SDS011;30245;51.966;6.292;2023-06-10T12:28:03;1.67;;;0.70;;
44536;SDS011;30245;51.966;6.292;2023-06-10T12:30:29;0.95;;;0.70;;
44536;SDS011;30245;51.966;6.292;2023-06-10T12:32:55;1.13;;;0.60;;
44536;SDS011;30245;51.966;6.292;2023-06-10T12:35:21;2.35;;;0.80;;
44536;SDS011;30245;51.966;6.292;2023-06-10T12:37:56;1.17;;;0.68;;
44536;SDS011;30245;51.966;6.292;2023-06-10T12:40:32;1.05;;;0.70;;
44536;SDS011;30245;51.966;6.292;2023-06-10T12:43:00;1.10;;;0.60;;
44536;SDS011;30245;51.966;6.292;2023-06-10T12:45:29;1.10;;;0.60;;
44536;SDS011;30245;51.966;6.292;2023-06-10T12:48:10;2.05;;;1.15;;
44536;SDS011;30245;51.966;6.292;2023-06-10T12:50:40;1.00;;;0.60;;
44536;SDS011;30245;51.966;6.292;2023-06-10T12:53:07;1.42;;;0.80;;
44536;SDS011;30245;51.966;6.292;2023-06-10T12:55:33;2.85;;;0.77;;
44536;SDS011;30245;51.966;6.292;2023-06-10T12:58:00;1.27;;;0.90;;
44536;SDS011;30245;51.966;6.292;2023-06-10T13:00:26;2.97;;;0.95;;
44536;SDS011;30245;51.966;6.292;2023-06-10T13:02:55;2.85;;;0.73;;
44536;SDS011;30245;51.966;6.292;2023-06-10T13:05:32;1.15;;;0.60;;
44536;SDS011;30245;51.966;6.292;2023-06-10T13:07:58;1.67;;;1.08;;
44536;SDS011;30245;51.966;6.292;2023-06-10T13:10:25;3.17;;;0.70;;
44536;SDS011;30245;51.966;6.292;2023-06-10T13:12:51;0.95;;;0.60;;
44536;SDS011;30245;51.966;6.292;2023-06-10T13:15:17;1.67;;;0.63;;
44536;SDS011;30245;51.966;6.292;2023-06-10T13:17:46;1.35;;;0.70;;
44536;SDS011;30245;51.966;6.292;2023-06-10T13:20:15;1.13;;;0.70;;
44536;SDS011;30245;51.966;6.292;2023-06-10T13:22:47;1.40;;;0.75;;
44536;SDS011;30245;51.966;6.292;2023-06-10T13:25:14;1.13;;;0.60;;
44536;SDS011;30245;51.966;6.292;2023-06-10T13:27:40;1.63;;;0.80;;
44536;SDS011;30245;51.966;6.292;2023-06-10T13:30:07;1.20;;;0.80;;
44536;SDS011;30245;51.966;6.292;2023-06-10T13:32:35;1.02;;;0.70;;
44536;SDS011;30245;51.966;6.292;2023-06-10T13:35:01;2.33;;;0.65;;
44536;SDS011;30245;51.966;6.292;2023-06-10T13:37:26;2.67;;;0.65;;
44536;SDS011;30245;51.966;6.292;2023-06-10T13:39:52;1.30;;;0.52;;
44536;SDS011;30245;51.966;6.292;2023-06-10T13:42:18;2.05;;;0.65;;
44536;SDS011;30245;51.966;6.292;2023-06-10T13:44:44;1.17;;;0.60;;
44536;SDS011;30245;51.966;6.292;2023-06-10T13:47:10;2.35;;;0.93;;
44536;SDS011;30245;51.966;6.292;2023-06-10T13:49:36;1.20;;;0.85;;
44536;SDS011;30245;51.966;6.292;2023-06-10T13:52:02;2.03;;;0.70;;
44536;SDS011;30245;51.966;6.292;2023-06-10T13:54:28;3.20;;;0.88;;
44536;SDS011;30245;51.966;6.292;2023-06-10T13:56:54;1.50;;;0.80;;
44536;SDS011;30245;51.966;6.292;2023-06-10T13:59:19;1.20;;;0.80;;
44536;SDS011;30245;51.966;6.292;2023-06-10T14:01:46;1.17;;;0.90;;
44536;SDS011;30245;51.966;6.292;2023-06-10T14:04:14;1.13;;;0.70;;
44536;SDS011;30245;51.966;6.292;2023-06-10T14:06:40;2.65;;;0.82;;
44536;SDS011;30245;51.966;6.292;2023-06-10T14:09:06;1.35;;;0.80;;
44536;SDS011;30245;51.966;6.292;2023-06-10T14:11:31;1.10;;;0.60;;
44536;SDS011;30245;51.966;6.292;2023-06-10T14:13:57;2.35;;;0.70;;
44536;SDS011;30245;51.966;6.292;2023-06-10T14:16:23;1.38;;;0.95;;
44536;SDS011;30245;51.966;6.292;2023-06-10T14:18:50;1.00;;;0.70;;
44536;SDS011;30245;51.966;6.292;2023-06-10T14:21:16;1.75;;;0.80;;
44536;SDS011;30245;51.966;6.292;2023-06-10T14:23:42;1.73;;;0.63;;
44536;SDS011;30245;51.966;6.292;2023-06-10T14:26:11;1.67;;;0.57;;
44536;SDS011;30245;51.966;6.292;2023-06-10T14:28:37;1.85;;;0.80;;
44536;SDS011;30245;51.966;6.292;2023-06-10T14:31:03;1.05;;;0.73;;
44536;SDS011;30245;51.966;6.292;2023-06-10T14:33:28;2.83;;;0.70;;
44536;SDS011;30245;51.966;6.292;2023-06-10T14:35:56;1.10;;;0.60;;
44536;SDS011;30245;51.966;6.292;2023-06-10T14:38:21;1.33;;;0.85;;
44536;SDS011;30245;51.966;6.292;2023-06-10T14:40:47;1.10;;;0.60;;
44536;SDS011;30245;51.966;6.292;2023-06-10T14:43:13;1.73;;;0.95;;
44536;SDS011;30245;51.966;6.292;2023-06-10T14:45:39;1.50;;;0.57;;
44536;SDS011;30245;51.966;6.292;2023-06-10T14:48:05;2.08;;;0.85;;
44536;SDS011;30245;51.966;6.292;2023-06-10T14:50:32;3.63;;;0.60;;
44536;SDS011;30245;51.966;6.292;2023-06-10T14:52:59;2.47;;;0.80;;
44536;SDS011;30245;51.966;6.292;2023-06-10T14:55:25;1.20;;;0.70;;
44536;SDS011;30245;51.966;6.292;2023-06-10T14:57:50;2.25;;;0.73;;
44536;SDS011;30245;51.966;6.292;2023-06-10T15:00:20;1.35;;;0.70;;
44536;SDS011;30245;51.966;6.292;2023-06-10T15:02:48;1.63;;;0.80;;
44536;SDS011;30245;51.966;6.292;2023-06-10T15:05:14;1.38;;;0.93;;
44536;SDS011;30245;51.966;6.292;2023-06-10T15:07:40;1.48;;;0.75;;
44536;SDS011;30245;51.966;6.292;2023-06-10T15:10:06;1.70;;;0.68;;
44536;SDS011;30245;51.966;6.292;2023-06-10T15:12:33;1.20;;;0.70;;
44536;SDS011;30245;51.966;6.292;2023-06-10T15:14:59;1.27;;;0.90;;
44536;SDS011;30245;51.966;6.292;2023-06-10T15:17:24;1.23;;;0.95;;
44536;SDS011;30245;51.966;6.292;2023-06-10T15:19:50;2.50;;;0.90;;
44536;SDS011;30245;51.966;6.292;2023-06-10T15:22:16;1.00;;;0.60;;
44536;SDS011;30245;51.966;6.292;2023-06-10T15:24:42;1.60;;;0.80;;
44536;SDS011;30245;51.966;6.292;2023-06-10T15:27:10;1.00;;;0.75;;
44536;SDS011;30245;51.966;6.292;2023-06-10T15:29:36;1.48;;;0.70;;
44536;SDS011;30245;51.966;6.292;2023-06-10T15:32:02;0.98;;;0.60;;